createdAt,value
2018-10-03T00:02:39.778Z,101056.48
2018-10-03T00:05:45.302Z,101065.53
2018-10-03T00:08:50.697Z,101067.02
2018-10-03T00:11:56.117Z,101057.97
2018-10-03T00:15:01.691Z,101038.80
2018-10-03T00:18:07.118Z,101033.22
2018-10-03T00:21:12.550Z,101037.63
2018-10-03T00:24:18.032Z,101040.09
2018-10-03T00:27:23.545Z,101043.99
2018-10-03T00:30:29.047Z,101036.73
2018-10-03T00:33:34.563Z,101036.28
2018-10-03T00:36:39.989Z,101032.76
2018-10-03T00:39:45.419Z,101025.94
2018-10-03T00:42:50.846Z,101032.19
2018-10-03T00:45:56.334Z,101030.74
2018-10-03T00:49:01.754Z,101031.45
2018-10-03T00:52:07.383Z,101030.61
2018-10-03T00:55:12.949Z,101036.08
2018-10-03T00:58:18.413Z,101038.54
2018-10-03T01:01:24.007Z,101048.66
2018-10-03T01:04:29.523Z,101048.14
2018-10-03T01:07:34.930Z,101057.02
2018-10-03T01:10:40.341Z,101060.89
2018-10-03T01:13:46.727Z,101062.46
2018-10-03T01:16:52.163Z,101066.88
2018-10-03T01:19:57.905Z,101059.87
2018-10-03T01:23:03.326Z,101055.83
2018-10-03T01:26:09.226Z,101067.94
2018-10-03T01:29:14.677Z,101069.89
2018-10-03T01:32:20.165Z,101068.70
2018-10-03T01:35:25.698Z,101078.59
2018-10-03T01:38:31.184Z,101076.39
2018-10-03T01:41:37.209Z,101085.36
2018-10-03T01:44:42.697Z,101077.56
2018-10-03T01:47:48.150Z,101077.80
2018-10-03T01:50:53.570Z,101068.31
2018-10-03T01:53:59.160Z,101071.57
2018-10-03T01:57:04.654Z,101065.86
2018-10-03T02:00:10.047Z,101067.53
2018-10-03T02:03:15.454Z,101060.47
2018-10-03T02:06:20.836Z,101072.59
2018-10-03T02:09:26.287Z,101061.30
2018-10-03T02:12:31.719Z,101057.27
2018-10-03T02:15:37.238Z,101065.20
2018-10-03T02:18:42.665Z,101081.95
2018-10-03T02:21:48.095Z,101089.28
2018-10-03T02:24:53.583Z,101098.05
2018-10-03T02:27:59.370Z,101106.64
2018-10-03T02:31:04.771Z,101124.78
2018-10-03T02:34:10.279Z,101146.90
2018-10-03T02:37:15.722Z,101124.30
2018-10-03T02:40:21.525Z,101120.36
2018-10-03T02:43:27.034Z,101122.15
2018-10-03T02:46:32.757Z,101116.41
2018-10-03T02:49:38.214Z,101121.89
2018-10-03T02:52:43.690Z,101153.78
2018-10-03T02:55:49.188Z,101160.03
2018-10-03T02:58:54.626Z,101131.75
2018-10-03T03:02:00.122Z,101144.06
2018-10-03T03:05:05.750Z,101144.45
2018-10-03T03:08:11.710Z,101143.39
2018-10-03T03:11:17.106Z,101139.59
2018-10-03T03:14:22.668Z,101147.71
2018-10-03T03:17:28.210Z,101148.43
2018-10-03T03:20:33.660Z,101160.58
2018-10-03T03:23:39.477Z,101166.69
2018-10-03T03:26:44.880Z,101167.07
2018-10-03T03:29:50.328Z,101159.45
2018-10-03T03:32:55.806Z,101158.02
2018-10-03T03:36:01.512Z,101157.86
2018-10-03T03:39:08.702Z,101172.81
2018-10-03T03:42:14.102Z,101174.11
2018-10-03T03:45:19.557Z,101170.41
2018-10-03T03:48:24.995Z,101176.59
2018-10-03T03:51:30.407Z,101154.83
2018-10-03T03:54:36.026Z,101175.08
2018-10-03T03:57:41.442Z,101169.23
2018-10-03T04:00:47.142Z,101171.25
2018-10-03T04:03:52.659Z,101176.78
2018-10-03T04:06:58.182Z,101200.89
2018-10-03T04:10:03.946Z,101196.53
2018-10-03T04:13:09.381Z,101199.05
2018-10-03T04:16:14.838Z,101210.03
2018-10-03T04:19:20.288Z,101202.44
2018-10-03T04:22:25.683Z,101208.02
2018-10-03T04:25:31.255Z,101209.27
2018-10-03T04:28:37.039Z,101211.86
2018-10-03T04:31:42.457Z,101224.06
2018-10-03T04:34:48.111Z,101223.89
2018-10-03T04:37:53.598Z,101235.42
2018-10-03T04:40:59.127Z,101229.84
2018-10-03T04:44:04.635Z,101241.45
2018-10-03T04:47:10.051Z,101251.39
2018-10-03T04:50:15.466Z,101254.52
2018-10-03T04:53:20.870Z,101251.27
2018-10-03T04:56:26.302Z,101252.86
2018-10-03T04:59:31.729Z,101256.00
2018-10-03T05:02:37.114Z,101262.50
2018-10-03T05:05:42.567Z,101275.75
2018-10-03T05:08:48.527Z,101274.24
2018-10-03T05:11:54.083Z,101274.36
2018-10-03T05:15:11.218Z,101277.09
2018-10-03T05:18:16.813Z,101273.05
2018-10-03T05:21:22.242Z,101294.67
2018-10-03T05:24:27.806Z,101295.29
2018-10-03T05:27:33.266Z,101298.63
2018-10-03T05:30:38.718Z,101310.20
2018-10-03T05:33:45.111Z,101316.01
2018-10-03T05:36:50.534Z,101319.56
2018-10-03T05:39:55.966Z,101328.37
2018-10-03T05:43:01.374Z,101339.95
2018-10-03T05:46:07.421Z,101345.72
2018-10-03T05:49:12.935Z,101342.27
2018-10-03T05:52:18.520Z,101350.28
2018-10-03T05:55:24.063Z,101356.16
2018-10-03T05:58:29.475Z,101352.77
2018-10-03T06:01:35.531Z,101362.96
2018-10-03T06:04:41.067Z,101365.62
2018-10-03T06:07:46.485Z,101377.74
2018-10-03T06:10:52.022Z,101391.94
2018-10-03T06:13:58.118Z,101397.44
2018-10-03T06:17:03.558Z,101395.04
2018-10-03T06:20:10.271Z,101407.22
2018-10-03T06:23:15.839Z,101412.14
2018-10-03T06:26:21.284Z,101421.18
2018-10-03T06:29:26.706Z,101427.28
2018-10-03T06:32:32.747Z,101423.20
2018-10-03T06:35:38.331Z,101444.02
2018-10-03T06:38:43.790Z,101428.23
2018-10-03T06:41:49.238Z,101439.38
2018-10-03T06:44:55.723Z,101436.59
2018-10-03T06:48:01.118Z,101443.67
2018-10-03T06:51:07.059Z,101450.63
2018-10-03T06:54:12.520Z,101456.29
2018-10-03T06:57:17.961Z,101467.76
2018-10-03T07:00:23.386Z,101483.20
2018-10-03T07:03:28.850Z,101482.85
2018-10-03T07:06:35.175Z,101490.38
2018-10-03T07:09:40.650Z,101504.52
2018-10-03T07:12:46.128Z,101506.84
2018-10-03T07:15:52.010Z,101510.41
2018-10-03T07:18:57.526Z,101522.97
2018-10-03T07:22:03.024Z,101529.24
2018-10-03T07:25:08.551Z,101535.52
2018-10-03T07:28:13.969Z,101541.07
2018-10-03T07:31:19.906Z,101545.70
2018-10-03T07:34:25.449Z,101551.97
2018-10-03T07:37:30.926Z,101561.59
2018-10-03T07:40:36.608Z,101565.95
2018-10-03T07:43:42.091Z,101575.41
2018-10-03T07:46:47.531Z,101581.05
2018-10-03T07:49:53.100Z,101586.05
2018-10-03T07:52:58.527Z,101589.20
2018-10-03T07:56:04.138Z,101601.42
2018-10-03T07:59:10.231Z,101598.44
2018-10-03T08:02:16.098Z,101603.09
2018-10-03T08:08:42.787Z,101622.14
2018-10-03T08:11:48.260Z,101634.31
2018-10-03T08:14:53.758Z,101635.75
2018-10-03T08:17:59.221Z,101639.18
2018-10-03T08:21:04.714Z,101645.75
2018-10-03T08:24:10.410Z,101649.95
2018-10-03T08:27:16.054Z,101656.61
2018-10-03T08:30:33.138Z,101661.00
2018-10-03T08:33:38.658Z,101669.80
2018-10-03T08:36:44.170Z,101675.18
2018-10-03T08:39:51.379Z,101677.53
2018-10-03T08:42:56.854Z,101681.22
2018-10-03T08:46:02.402Z,101689.27
2018-10-03T08:49:08.087Z,101691.88
2018-10-03T08:52:13.558Z,101688.67
2018-10-03T08:55:19.079Z,101700.44
2018-10-03T08:58:24.616Z,101707.90
2018-10-03T09:01:30.187Z,101706.72
2018-10-03T09:04:35.642Z,101716.01
2018-10-03T09:07:41.063Z,101724.78
2018-10-03T09:10:47.752Z,101717.26
2018-10-03T09:13:53.265Z,101734.19
2018-10-03T09:16:58.742Z,101734.69
2018-10-03T09:20:04.238Z,101735.82
2018-10-03T09:23:09.686Z,101741.55
2018-10-03T09:26:15.378Z,101753.58
2018-10-03T09:29:20.812Z,101756.83
2018-10-03T09:32:26.745Z,101761.74
2018-10-03T09:35:32.670Z,101775.41
2018-10-03T09:38:38.114Z,101773.11
2018-10-03T09:41:43.570Z,101784.32
2018-10-03T09:44:49.078Z,101787.25
2018-10-03T09:47:54.507Z,101801.38
2018-10-03T09:51:00.115Z,101792.55
2018-10-03T09:54:05.906Z,101799.77
2018-10-03T09:57:11.324Z,101816.89
2018-10-03T10:00:20.828Z,101812.05
2018-10-03T10:03:26.617Z,101818.79
2018-10-03T10:06:33.145Z,101823.98
2018-10-03T10:09:38.837Z,101819.47
2018-10-03T10:12:44.307Z,101827.86
2018-10-03T10:15:49.834Z,101831.25
2018-10-03T10:18:55.329Z,101841.11
2018-10-03T10:22:00.846Z,101853.84
2018-10-03T10:25:07.755Z,101873.56
2018-10-03T10:28:13.206Z,101869.64
2018-10-03T10:31:18.606Z,101876.33
2018-10-03T10:34:24.178Z,101884.02
2018-10-03T10:37:29.634Z,101889.14
2018-10-03T10:40:35.580Z,101893.97
2018-10-03T10:43:41.208Z,101887.91
2018-10-03T10:46:46.730Z,101884.68
2018-10-03T10:49:52.282Z,101884.55
2018-10-03T10:52:57.690Z,101900.23
2018-10-03T10:56:03.163Z,101910.31
2018-10-03T10:59:08.940Z,101927.67
2018-10-03T11:02:14.330Z,101935.25
2018-10-03T11:05:19.855Z,101924.94
2018-10-03T11:08:25.302Z,101929.91
2018-10-03T11:11:30.690Z,101948.34
2018-10-03T11:14:36.179Z,101947.41
2018-10-03T11:17:41.558Z,101939.34
2018-10-03T11:20:46.978Z,101947.58
2018-10-03T11:23:52.595Z,101950.94
2018-10-03T11:26:58.088Z,101956.81
2018-10-03T11:30:03.594Z,101954.10
2018-10-03T11:33:09.043Z,101939.30
2018-10-03T11:36:14.477Z,101946.09
2018-10-03T11:39:19.914Z,101958.38
2018-10-03T11:42:26.264Z,101958.70
2018-10-03T11:45:34.154Z,101957.50
2018-10-03T11:48:39.636Z,101961.63
2018-10-03T11:51:45.155Z,101964.97
2018-10-03T11:54:50.712Z,101966.38
2018-10-03T11:57:56.136Z,101974.80
2018-10-03T12:01:01.557Z,101980.17
2018-10-03T12:04:07.094Z,101986.31
2018-10-03T12:07:12.495Z,101985.92
2018-10-03T12:10:18.101Z,101982.58
2018-10-03T12:13:23.610Z,101980.23
2018-10-03T12:16:29.042Z,101989.94
2018-10-03T12:19:34.819Z,101997.97
2018-10-03T12:22:40.282Z,101993.40
2018-10-03T12:25:45.825Z,102019.82
2018-10-03T12:28:51.297Z,102028.48
2018-10-03T12:31:56.691Z,102036.48
2018-10-03T12:35:02.170Z,102034.16
2018-10-03T12:38:07.575Z,102031.19
2018-10-03T12:41:13.070Z,102022.23
2018-10-03T12:44:18.619Z,102029.16
2018-10-03T12:47:24.068Z,102022.59
2018-10-03T12:50:29.754Z,102028.81
2018-10-03T12:53:35.230Z,102038.62
2018-10-03T12:56:40.875Z,102039.22
2018-10-03T12:59:46.287Z,102037.34
2018-10-03T13:02:51.669Z,102041.58
2018-10-03T13:05:57.166Z,102051.19
2018-10-03T13:09:02.583Z,102064.13
2018-10-03T13:12:08.089Z,102052.14
2018-10-03T13:15:13.603Z,102058.62
2018-10-03T13:18:19.054Z,102067.44
2018-10-03T13:21:24.532Z,102073.06
2018-10-03T13:24:30.212Z,102077.69
2018-10-03T13:27:36.358Z,102078.45
2018-10-03T13:30:41.983Z,102079.67
2018-10-03T13:33:47.637Z,102089.09
2018-10-03T13:36:53.086Z,102071.11
2018-10-03T13:39:58.887Z,102079.56
2018-10-03T13:43:04.310Z,102091.15
2018-10-03T13:46:11.815Z,102081.44
2018-10-03T13:49:17.294Z,102081.54
2018-10-03T13:52:23.536Z,102085.80
2018-10-03T13:55:29.029Z,102078.09
2018-10-03T13:58:34.451Z,102071.42
2018-10-03T14:01:39.934Z,102074.56
2018-10-03T14:04:45.574Z,102078.55
2018-10-03T14:07:51.133Z,102087.87
2018-10-03T14:10:56.708Z,102086.00
2018-10-03T14:14:02.976Z,102083.94
2018-10-03T14:17:08.836Z,102079.61
2018-10-03T14:20:14.750Z,102095.07
2018-10-03T14:23:20.159Z,102085.63
2018-10-03T14:26:25.599Z,102083.02
2018-10-03T14:29:31.038Z,102098.22
2018-10-03T14:32:36.466Z,102107.81
2018-10-03T14:35:41.965Z,102110.07
2018-10-03T14:38:47.399Z,102107.78
2018-10-03T14:41:52.875Z,102112.42
2018-10-03T14:44:58.387Z,102102.05
2018-10-03T14:48:03.872Z,102119.39
2018-10-03T14:51:09.332Z,102114.48
2018-10-03T14:54:14.785Z,102128.09
2018-10-03T14:57:20.227Z,102131.55
2018-10-03T15:00:25.684Z,102134.70
2018-10-03T15:03:31.114Z,102135.61
2018-10-03T15:06:36.538Z,102137.44
2018-10-03T15:09:41.959Z,102142.03
2018-10-03T15:12:47.445Z,102143.60
2018-10-03T15:15:53.113Z,102143.09
2018-10-03T15:18:58.564Z,102144.27
2018-10-03T15:22:04.709Z,102149.17
2018-10-03T15:25:10.236Z,102145.11
2018-10-03T15:28:15.661Z,102152.90
2018-10-03T15:31:21.098Z,102153.62
2018-10-03T15:34:26.763Z,102157.27
2018-10-03T15:37:32.199Z,102156.05
2018-10-03T15:40:37.851Z,102164.36
2018-10-03T15:43:43.507Z,102156.19
2018-10-03T15:46:48.943Z,102158.94
2018-10-03T15:49:55.196Z,102160.58
2018-10-03T15:53:00.635Z,102159.52
2018-10-03T15:56:06.444Z,102170.07
2018-10-03T15:59:12.647Z,102176.86
2018-10-03T16:02:18.697Z,102177.66
2018-10-03T16:05:24.227Z,102179.02
2018-10-03T16:08:30.195Z,102186.95
2018-10-03T16:11:35.631Z,102185.28
2018-10-03T16:14:41.100Z,102189.84
2018-10-03T16:17:46.528Z,102193.34
2018-10-03T16:20:51.966Z,102189.17
2018-10-03T16:23:58.491Z,102194.51
2018-10-03T16:27:04.900Z,102200.66
2018-10-03T16:30:10.350Z,102200.11
2018-10-03T16:33:15.900Z,102196.23
2018-10-03T16:36:22.032Z,102197.58
2018-10-03T16:39:27.514Z,102200.53
2018-10-03T16:42:32.927Z,102204.00
2018-10-03T16:45:38.418Z,102201.04
2018-10-03T16:48:43.865Z,102210.48
2018-10-03T16:51:49.323Z,102211.74
2018-10-03T16:54:55.002Z,102200.84
2018-10-03T16:58:00.536Z,102198.65
2018-10-03T17:01:05.960Z,102189.66
2018-10-03T17:04:11.871Z,102192.17
2018-10-03T17:07:17.639Z,102202.67
2018-10-03T17:10:24.095Z,102209.58
2018-10-03T17:13:29.643Z,102212.61
2018-10-03T17:16:35.035Z,102211.86
2018-10-03T17:19:40.628Z,102224.39
2018-10-03T17:22:46.241Z,102228.77
2018-10-03T17:25:51.707Z,102231.98
2018-10-03T17:28:57.151Z,102226.96
2018-10-03T17:32:02.551Z,102229.47
2018-10-03T17:35:08.033Z,102236.48
2018-10-03T17:38:13.416Z,102218.78
2018-10-03T17:41:18.832Z,102237.75
2018-10-03T17:44:24.498Z,102235.61
2018-10-03T17:47:29.891Z,102244.59
2018-10-03T17:50:35.727Z,102253.38
2018-10-03T17:53:41.132Z,102264.60
2018-10-03T17:56:46.571Z,102262.33
2018-10-03T17:59:52.391Z,102263.26
2018-10-03T18:02:57.793Z,102262.20
2018-10-03T18:06:03.230Z,102262.58
2018-10-03T18:09:10.673Z,102260.17
2018-10-03T18:12:16.239Z,102263.70
2018-10-03T18:15:21.656Z,102268.58
2018-10-03T18:18:27.092Z,102275.44
2018-10-03T18:21:32.519Z,102270.61
2018-10-03T18:24:37.943Z,102268.72
2018-10-03T18:27:45.106Z,102268.81
2018-10-03T18:30:50.736Z,102276.22
2018-10-03T18:33:56.247Z,102278.55
2018-10-03T18:37:01.695Z,102274.98
2018-10-03T18:40:07.180Z,102271.92
2018-10-03T18:43:12.616Z,102278.41
2018-10-03T18:46:18.047Z,102280.36
2018-10-03T18:49:23.487Z,102276.09
2018-10-03T18:52:29.083Z,102275.34
2018-10-03T18:55:34.674Z,102287.93
2018-10-03T18:58:40.107Z,102298.14
2018-10-03T19:01:49.398Z,102297.78
2018-10-03T19:05:00.528Z,102296.91
2018-10-03T19:08:35.897Z,102297.69
2018-10-03T19:11:43.787Z,102303.81
2018-10-03T19:14:49.227Z,102313.41
2018-10-03T19:17:54.717Z,102310.34
2018-10-03T19:21:00.144Z,102315.10
2018-10-03T19:24:05.584Z,102321.23
2018-10-03T19:27:11.007Z,102312.36
2018-10-03T19:30:16.418Z,102314.13
2018-10-03T19:33:21.870Z,102315.66
2018-10-03T19:36:27.831Z,102321.33
2018-10-03T19:39:33.247Z,102318.42
2018-10-03T19:42:38.666Z,102322.67
2018-10-03T19:45:44.147Z,102320.88
2018-10-03T19:48:49.738Z,102322.08
2018-10-03T19:51:55.177Z,102326.94
2018-10-03T19:55:00.637Z,102320.39
2018-10-03T19:58:06.844Z,102328.34
2018-10-03T20:01:12.247Z,102320.97
2018-10-03T20:04:17.701Z,102312.10
2018-10-03T20:07:23.642Z,102319.53
2018-10-03T20:10:29.056Z,102315.66
2018-10-03T20:13:34.475Z,102319.30
2018-10-03T20:16:40.032Z,102320.27
2018-10-03T20:19:45.987Z,102320.73
2018-10-03T20:22:52.067Z,102327.70
2018-10-03T20:25:57.508Z,102332.92
2018-10-03T20:29:03.891Z,102332.47
2018-10-03T20:32:09.839Z,102339.53
2018-10-03T20:35:15.529Z,102342.05
2018-10-03T20:38:21.019Z,102340.13
2018-10-03T20:41:26.492Z,102336.80
2018-10-03T20:44:31.984Z,102344.66
2018-10-03T20:47:37.388Z,102359.45
2018-10-03T20:50:42.814Z,102358.66
2018-10-03T20:53:48.403Z,102357.16
2018-10-03T20:56:53.823Z,102354.03
2018-10-03T20:59:59.259Z,102357.21
2018-10-03T21:03:04.790Z,102351.03
2018-10-03T21:06:10.266Z,102343.60
2018-10-03T21:09:15.700Z,102351.03
2018-10-03T21:12:23.418Z,102355.85
2018-10-03T21:15:28.972Z,102358.09
2018-10-03T21:18:34.395Z,102360.76
2018-10-03T21:21:40.303Z,102362.52
2018-10-03T21:24:45.753Z,102363.16
2018-10-03T21:27:51.394Z,102370.03
2018-10-03T21:30:57.200Z,102373.61
2018-10-03T21:34:02.640Z,102376.14
2018-10-03T21:37:08.072Z,102372.48
2018-10-03T21:40:13.498Z,102369.78
2018-10-03T21:43:18.874Z,102365.89
2018-10-03T21:46:24.266Z,102362.28
2018-10-03T21:49:29.663Z,102355.01
2018-10-03T21:52:35.072Z,102347.47
2018-10-03T21:55:40.522Z,102340.05
2018-10-03T21:58:45.924Z,102343.95
2018-10-03T22:01:51.347Z,102342.98
2018-10-03T22:04:59.521Z,102334.05
2018-10-03T22:08:04.999Z,102337.95
2018-10-03T22:11:10.429Z,102340.86
2018-10-03T22:14:15.827Z,102343.47
2018-10-03T22:17:24.578Z,102337.86
2018-10-03T22:20:30.008Z,102342.65
2018-10-03T22:23:35.411Z,102346.56
2018-10-03T22:26:40.843Z,102331.83
2018-10-03T22:29:47.119Z,102340.56
2018-10-03T22:32:52.559Z,102342.80
2018-10-03T22:35:58.024Z,102351.04
2018-10-03T22:39:03.498Z,102345.97
2018-10-03T22:42:08.943Z,102342.42
2018-10-03T22:45:14.386Z,102340.70
2018-10-03T22:48:19.815Z,102347.64
2018-10-03T22:51:25.238Z,102343.67
2018-10-03T22:54:30.664Z,102342.80
2018-10-03T22:57:36.111Z,102336.97
2018-10-03T23:00:41.579Z,102343.16
2018-10-03T23:03:47.021Z,102352.20
2018-10-03T23:06:52.467Z,102351.85
2018-10-03T23:09:57.891Z,102348.56
2018-10-03T23:13:03.328Z,102351.73
2018-10-03T23:16:09.484Z,102349.05
2018-10-03T23:19:14.939Z,102345.22
2018-10-03T23:22:20.373Z,102349.17
2018-10-03T23:25:25.799Z,102358.05
2018-10-03T23:28:31.366Z,102357.70
2018-10-03T23:31:36.815Z,102358.18
2018-10-03T23:34:42.261Z,102357.97
2018-10-03T23:37:47.692Z,102368.41
2018-10-03T23:40:53.108Z,102368.41
2018-10-03T23:43:58.579Z,102373.61
2018-10-03T23:47:04.003Z,102367.62
2018-10-03T23:50:09.424Z,102365.95
2018-10-03T23:53:14.858Z,102370.33
2018-10-03T23:56:20.339Z,102365.97
2018-10-03T23:59:25.779Z,102367.03
